sensor_id;sensor_type;location;lat;lon;timestamp;pressure;altitude;pressure_sealevel;temperature;humidity
12182;BME280;6154;51.550;12.138;2023-05-02T00:02:15;100330.78;;;17.49;48.13
12182;BME280;6154;51.550;12.138;2023-05-02T00:04:44;100329.50;;;17.44;48.08
12182;BME280;6154;51.550;12.138;2023-05-02T00:07:12;100336.22;;;17.38;48.09
12182;BME280;6154;51.550;12.138;2023-05-02T00:09:41;100335.37;;;17.38;48.04
12182;BME280;6154;51.550;12.138;2023-05-02T00:12:09;100330.53;;;17.32;48.26
12182;BME280;6154;51.550;12.138;2023-05-02T00:14:37;100330.09;;;17.27;48.13
12182;BME280;6154;51.550;12.138;2023-05-02T00:17:06;100330.59;;;17.20;48.28
12182;BME280;6154;51.550;12.138;2023-05-02T00:19:38;100335.34;;;17.17;48.42
12182;BME280;6154;51.550;12.138;2023-05-02T00:22:06;100337.41;;;17.13;48.94
12182;BME280;6154;51.550;12.138;2023-05-02T00:24:34;100341.59;;;17.06;48.42
12182;BME280;6154;51.550;12.138;2023-05-02T00:27:03;100340.16;;;17.02;48.82
12182;BME280;6154;51.550;12.138;2023-05-02T00:29:32;100337.03;;;16.97;48.52
12182;BME280;6154;51.550;12.138;2023-05-02T00:32:00;100339.97;;;16.94;48.60
12182;BME280;6154;51.550;12.138;2023-05-02T00:34:28;100339.47;;;16.89;48.50
12182;BME280;6154;51.550;12.138;2023-05-02T00:36:58;100337.06;;;16.86;48.50
12182;BME280;6154;51.550;12.138;2023-05-02T00:39:27;100338.28;;;16.82;48.48
12182;BME280;6154;51.550;12.138;2023-05-02T00:41:55;100337.69;;;16.78;48.67
12182;BME280;6154;51.550;12.138;2023-05-02T00:44:24;100342.47;;;16.75;48.54
12182;BME280;6154;51.550;12.138;2023-05-02T00:46:53;100343.88;;;16.67;48.66
12182;BME280;6154;51.550;12.138;2023-05-02T00:49:22;100340.72;;;16.62;48.75
12182;BME280;6154;51.550;12.138;2023-05-02T00:51:52;100348.75;;;16.62;48.84
12182;BME280;6154;51.550;12.138;2023-05-02T00:54:21;100339.41;;;16.57;49.44
12182;BME280;6154;51.550;12.138;2023-05-02T00:56:50;100341.25;;;16.56;49.10
12182;BME280;6154;51.550;12.138;2023-05-02T00:59:18;100345.03;;;16.54;49.13
12182;BME280;6154;51.550;12.138;2023-05-02T01:01:52;100345.87;;;16.54;49.23
12182;BME280;6154;51.550;12.138;2023-05-02T01:04:30;100344.66;;;16.47;50.64
12182;BME280;6154;51.550;12.138;2023-05-02T01:07:10;100346.09;;;16.51;50.90
12182;BME280;6154;51.550;12.138;2023-05-02T01:09:51;100346.59;;;16.56;51.32
12182;BME280;6154;51.550;12.138;2023-05-02T01:12:26;100347.31;;;16.58;53.46
12182;BME280;6154;51.550;12.138;2023-05-02T01:14:56;100348.75;;;16.62;52.67
12182;BME280;6154;51.550;12.138;2023-05-02T01:17:29;100362.37;;;16.71;53.25
12182;BME280;6154;51.550;12.138;2023-05-02T01:20:02;100351.09;;;16.99;51.52
12182;BME280;6154;51.550;12.138;2023-05-02T01:22:31;100356.00;;;16.94;52.23
12182;BME280;6154;51.550;12.138;2023-05-02T01:25:10;100354.81;;;16.87;53.80
12182;BME280;6154;51.550;12.138;2023-05-02T01:27:48;100358.94;;;17.12;53.18
12182;BME280;6154;51.550;12.138;2023-05-02T01:30:20;100347.72;;;16.97;54.56
12182;BME280;6154;51.550;12.138;2023-05-02T01:32:51;100356.75;;;17.17;53.01
12182;BME280;6154;51.550;12.138;2023-05-02T01:35:21;100363.66;;;17.19;52.82
12182;BME280;6154;51.550;12.138;2023-05-02T01:37:53;100362.94;;;17.17;52.94
12182;BME280;6154;51.550;12.138;2023-05-02T01:40:23;100362.03;;;17.28;52.83
12182;BME280;6154;51.550;12.138;2023-05-02T01:42:52;100369.44;;;17.36;51.89
12182;BME280;6154;51.550;12.138;2023-05-02T01:45:24;100373.09;;;17.35;52.50
12182;BME280;6154;51.550;12.138;2023-05-02T01:47:54;100377.19;;;17.39;52.90
12182;BME280;6154;51.550;12.138;2023-05-02T01:50:23;100375.38;;;17.39;52.28
12182;BME280;6154;51.550;12.138;2023-05-02T01:52:57;100375.38;;;17.60;51.19
12182;BME280;6154;51.550;12.138;2023-05-02T01:55:27;100367.28;;;17.50;51.45
12182;BME280;6154;51.550;12.138;2023-05-02T01:57:56;100384.12;;;17.62;50.84
12182;BME280;6154;51.550;12.138;2023-05-02T02:00:28;100383.06;;;17.53;51.80
12182;BME280;6154;51.550;12.138;2023-05-02T02:02:59;100388.47;;;17.63;51.87
12182;BME280;6154;51.550;12.138;2023-05-02T02:05:27;100395.66;;;17.74;50.49
12182;BME280;6154;51.550;12.138;2023-05-02T02:07:57;100392.84;;;17.75;51.49
12182;BME280;6154;51.550;12.138;2023-05-02T02:10:26;100395.81;;;17.82;50.26
12182;BME280;6154;51.550;12.138;2023-05-02T02:13:03;100397.09;;;17.78;50.46
12182;BME280;6154;51.550;12.138;2023-05-02T02:15:36;100401.84;;;17.74;51.49
12182;BME280;6154;51.550;12.138;2023-05-02T02:18:10;100395.28;;;17.67;51.94
12182;BME280;6154;51.550;12.138;2023-05-02T02:20:42;100403.28;;;17.78;51.25
12182;BME280;6154;51.550;12.138;2023-05-02T02:23:12;100409.81;;;17.86;49.99
12182;BME280;6154;51.550;12.138;2023-05-02T02:25:42;100409.81;;;17.86;50.01
12182;BME280;6154;51.550;12.138;2023-05-02T02:28:14;100428.34;;;17.77;50.31
12182;BME280;6154;51.550;12.138;2023-05-02T02:30:44;100421.22;;;17.67;51.60
12182;BME280;6154;51.550;12.138;2023-05-02T02:33:12;100424.97;;;17.75;50.59
12182;BME280;6154;51.550;12.138;2023-05-02T02:35:43;100428.94;;;17.81;50.28
12182;BME280;6154;51.550;12.138;2023-05-02T02:38:22;100427.88;;;17.72;51.06
12182;BME280;6154;51.550;12.138;2023-05-02T02:40:56;100432.88;;;17.77;51.03
12182;BME280;6154;51.550;12.138;2023-05-02T02:43:33;100438.78;;;17.80;50.51
12182;BME280;6154;51.550;12.138;2023-05-02T02:46:14;100439.41;;;17.84;50.87
12182;BME280;6154;51.550;12.138;2023-05-02T02:48:50;100443.03;;;17.83;51.57
12182;BME280;6154;51.550;12.138;2023-05-02T02:51:37;100436.00;;;17.82;51.34
12182;BME280;6154;51.550;12.138;2023-05-02T02:54:09;100439.78;;;17.79;50.91
12182;BME280;6154;51.550;12.138;2023-05-02T02:56:58;100438.53;;;17.84;50.73
12182;BME280;6154;51.550;12.138;2023-05-02T02:59:32;100453.56;;;17.75;51.87
12182;BME280;6154;51.550;12.138;2023-05-02T03:02:05;100449.12;;;17.85;50.79
12182;BME280;6154;51.550;12.138;2023-05-02T03:04:37;100451.91;;;17.84;50.61
12182;BME280;6154;51.550;12.138;2023-05-02T03:07:06;100452.66;;;17.86;50.42
12182;BME280;6154;51.550;12.138;2023-05-02T03:09:41;100449.25;;;17.84;50.15
12182;BME280;6154;51.550;12.138;2023-05-02T03:12:10;100456.41;;;17.83;51.23
12182;BME280;6154;51.550;12.138;2023-05-02T03:14:39;100456.03;;;17.88;50.19
12182;BME280;6154;51.550;12.138;2023-05-02T03:17:09;100454.72;;;17.82;50.23
12182;BME280;6154;51.550;12.138;2023-05-02T03:19:37;100467.06;;;17.73;50.66
12182;BME280;6154;51.550;12.138;2023-05-02T03:22:05;100475.09;;;17.73;50.67
12182;BME280;6154;51.550;12.138;2023-05-02T03:24:34;100477.56;;;17.65;50.96
12182;BME280;6154;51.550;12.138;2023-05-02T03:27:03;100475.13;;;17.62;51.60
12182;BME280;6154;51.550;12.138;2023-05-02T03:29:32;100479.97;;;17.68;50.51
12182;BME280;6154;51.550;12.138;2023-05-02T03:32:00;100486.22;;;17.58;51.30
12182;BME280;6154;51.550;12.138;2023-05-02T03:34:30;100495.22;;;17.57;51.42
12182;BME280;6154;51.550;12.138;2023-05-02T03:36:59;100510.16;;;17.59;51.58
12182;BME280;6154;51.550;12.138;2023-05-02T03:39:28;100502.13;;;17.59;50.98
12182;BME280;6154;51.550;12.138;2023-05-02T03:41:56;100484.97;;;17.62;50.58
12182;BME280;6154;51.550;12.138;2023-05-02T03:44:25;100491.91;;;17.64;50.73
12182;BME280;6154;51.550;12.138;2023-05-02T03:46:53;100480.22;;;17.65;50.70
12182;BME280;6154;51.550;12.138;2023-05-02T03:49:22;100495.53;;;17.63;50.74
12182;BME280;6154;51.550;12.138;2023-05-02T03:51:52;100490.00;;;17.55;50.98
12182;BME280;6154;51.550;12.138;2023-05-02T03:54:21;100496.91;;;17.58;51.04
12182;BME280;6154;51.550;12.138;2023-05-02T03:56:50;100506.00;;;17.34;52.78
12182;BME280;6154;51.550;12.138;2023-05-02T03:59:18;100506.84;;;17.35;52.26
12182;BME280;6154;51.550;12.138;2023-05-02T04:01:48;100522.56;;;17.28;52.61
12182;BME280;6154;51.550;12.138;2023-05-02T04:04:18;100523.88;;;17.34;51.82
12182;BME280;6154;51.550;12.138;2023-05-02T04:06:46;100528.00;;;17.38;51.43
12182;BME280;6154;51.550;12.138;2023-05-02T04:09:16;100540.53;;;17.37;51.67
12182;BME280;6154;51.550;12.138;2023-05-02T04:11:45;100543.56;;;17.33;52.34
12182;BME280;6154;51.550;12.138;2023-05-02T04:14:13;100549.16;;;17.41;51.44
12182;BME280;6154;51.550;12.138;2023-05-02T04:16:46;100551.94;;;17.39;51.72
12182;BME280;6154;51.550;12.138;2023-05-02T04:19:16;100553.19;;;17.35;52.55
12182;BME280;6154;51.550;12.138;2023-05-02T04:21:45;100561.53;;;17.42;51.81
12182;BME280;6154;51.550;12.138;2023-05-02T04:24:13;100558.25;;;17.49;51.37
12182;BME280;6154;51.550;12.138;2023-05-02T04:26:44;100564.97;;;17.44;51.84
12182;BME280;6154;51.550;12.138;2023-05-02T04:29:13;100573.00;;;17.33;52.46
12182;BME280;6154;51.550;12.138;2023-05-02T04:31:42;100583.69;;;17.33;53.45
12182;BME280;6154;51.550;12.138;2023-05-02T04:34:11;100578.44;;;17.42;52.06
12182;BME280;6154;51.550;12.138;2023-05-02T04:36:40;100584.16;;;17.49;51.53
12182;BME280;6154;51.550;12.138;2023-05-02T04:39:08;100587.34;;;17.54;51.62
12182;BME280;6154;51.550;12.138;2023-05-02T04:41:37;100591.09;;;17.51;51.94
12182;BME280;6154;51.550;12.138;2023-05-02T04:44:07;100590.00;;;17.43;53.05
12182;BME280;6154;51.550;12.138;2023-05-02T04:46:35;100586.84;;;17.49;52.50
12182;BME280;6154;51.550;12.138;2023-05-02T04:49:04;100596.53;;;17.61;51.55
12182;BME280;6154;51.550;12.138;2023-05-02T04:51:32;100599.22;;;17.61;52.03
12182;BME280;6154;51.550;12.138;2023-05-02T04:54:00;100599.94;;;17.63;51.87
12182;BME280;6154;51.550;12.138;2023-05-02T04:56:29;100603.84;;;17.59;52.73
12182;BME280;6154;51.550;12.138;2023-05-02T04:58:57;100611.62;;;17.62;52.05
12182;BME280;6154;51.550;12.138;2023-05-02T05:01:27;100614.56;;;17.48;53.44
12182;BME280;6154;51.550;12.138;2023-05-02T05:03:56;100621.62;;;17.49;53.27
12182;BME280;6154;51.550;12.138;2023-05-02T05:06:24;100628.19;;;17.22;54.71
12182;BME280;6154;51.550;12.138;2023-05-02T05:08:53;100630.25;;;17.52;52.71
12182;BME280;6154;51.550;12.138;2023-05-02T05:11:22;100634.41;;;17.57;52.31
12182;BME280;6154;51.550;12.138;2023-05-02T05:13:50;100637.03;;;17.68;51.81
12182;BME280;6154;51.550;12.138;2023-05-02T05:16:19;100636.56;;;17.51;53.67
12182;BME280;6154;51.550;12.138;2023-05-02T05:18:49;100643.72;;;17.62;52.40
12182;BME280;6154;51.550;12.138;2023-05-02T05:21:19;100657.13;;;17.73;52.37
12182;BME280;6154;51.550;12.138;2023-05-02T05:23:47;100658.09;;;17.84;51.93
12182;BME280;6154;51.550;12.138;2023-05-02T05:26:16;100663.78;;;17.90;51.70
12182;BME280;6154;51.550;12.138;2023-05-02T05:28:45;100669.78;;;17.94;51.75
12182;BME280;6154;51.550;12.138;2023-05-02T05:31:13;100681.44;;;17.93;52.34
12182;BME280;6154;51.550;12.138;2023-05-02T05:33:44;100678.66;;;17.94;52.18
12182;BME280;6154;51.550;12.138;2023-05-02T05:36:14;100685.19;;;18.01;52.07
12182;BME280;6154;51.550;12.138;2023-05-02T05:38:42;100686.78;;;18.04;52.36
12182;BME280;6154;51.550;12.138;2023-05-02T05:41:10;100691.66;;;17.99;53.55
12182;BME280;6154;51.550;12.138;2023-05-02T05:43:39;100700.06;;;18.05;52.71
12182;BME280;6154;51.550;12.138;2023-05-02T05:46:07;100691.94;;;17.85;53.59
12182;BME280;6154;51.550;12.138;2023-05-02T05:48:36;100693.97;;;17.92;53.00
12182;BME280;6154;51.550;12.138;2023-05-02T05:51:05;100700.19;;;18.04;52.70
12182;BME280;6154;51.550;12.138;2023-05-02T05:53:34;100704.81;;;17.91;53.17
12182;BME280;6154;51.550;12.138;2023-05-02T05:56:12;100717.97;;;17.94;53.37
12182;BME280;6154;51.550;12.138;2023-05-02T05:58:42;100718.94;;;17.81;54.56
12182;BME280;6154;51.550;12.138;2023-05-02T06:01:10;100726.00;;;17.94;53.17
12182;BME280;6154;51.550;12.138;2023-05-02T06:03:39;100728.63;;;18.16;52.19
12182;BME280;6154;51.550;12.138;2023-05-02T06:06:07;100731.56;;;18.02;52.82
12182;BME280;6154;51.550;12.138;2023-05-02T06:08:37;100737.88;;;18.12;52.32
12182;BME280;6154;51.550;12.138;2023-05-02T06:11:07;100734.84;;;18.17;52.70
12182;BME280;6154;51.550;12.138;2023-05-02T06:13:36;100748.38;;;17.93;53.90
12182;BME280;6154;51.550;12.138;2023-05-02T06:16:06;100742.00;;;18.27;52.60
12182;BME280;6154;51.550;12.138;2023-05-02T06:18:34;100750.62;;;18.31;52.55
12182;BME280;6154;51.550;12.138;2023-05-02T06:21:03;100757.06;;;18.39;52.34
12182;BME280;6154;51.550;12.138;2023-05-02T06:23:32;100760.00;;;18.36;52.78
12182;BME280;6154;51.550;12.138;2023-05-02T06:26:02;100762.41;;;18.39;52.35
12182;BME280;6154;51.550;12.138;2023-05-02T06:28:31;100775.53;;;18.65;52.17
12182;BME280;6154;51.550;12.138;2023-05-02T06:31:00;100774.97;;;18.82;51.50
12182;BME280;6154;51.550;12.138;2023-05-02T06:33:30;100778.97;;;18.88;51.60
12182;BME280;6154;51.550;12.138;2023-05-02T06:35:58;100787.19;;;18.75;52.12
12182;BME280;6154;51.550;12.138;2023-05-02T06:38:28;100796.56;;;19.02;51.39
12182;BME280;6154;51.550;12.138;2023-05-02T06:40:56;100804.13;;;19.08;51.39
12182;BME280;6154;51.550;12.138;2023-05-02T06:43:25;100812.31;;;19.27;51.08
12182;BME280;6154;51.550;12.138;2023-05-02T06:45:54;100810.25;;;18.99;52.11
12182;BME280;6154;51.550;12.138;2023-05-02T06:48:23;100816.03;;;19.15;51.56
12182;BME280;6154;51.550;12.138;2023-05-02T06:50:51;100816.50;;;19.20;51.52
12182;BME280;6154;51.550;12.138;2023-05-02T06:53:20;100824.47;;;19.31;51.13
12182;BME280;6154;51.550;12.138;2023-05-02T06:55:48;100829.69;;;19.33;51.23
12182;BME280;6154;51.550;12.138;2023-05-02T06:58:17;100827.09;;;19.42;51.02
12182;BME280;6154;51.550;12.138;2023-05-02T07:00:47;100832.78;;;19.28;51.45
12182;BME280;6154;51.550;12.138;2023-05-02T07:03:16;100839.66;;;19.21;51.54
12182;BME280;6154;51.550;12.138;2023-05-02T07:05:44;100842.47;;;19.19;51.64
12182;BME280;6154;51.550;12.138;2023-05-02T07:08:12;100849.25;;;19.03;52.24
12182;BME280;6154;51.550;12.138;2023-05-02T07:10:40;100849.06;;;18.94;52.32
12182;BME280;6154;51.550;12.138;2023-05-02T07:13:08;100853.66;;;18.49;53.95
12182;BME280;6154;51.550;12.138;2023-05-02T07:15:37;100861.66;;;18.60;53.15
12182;BME280;6154;51.550;12.138;2023-05-02T07:18:06;100860.69;;;18.61;52.80
12182;BME280;6154;51.550;12.138;2023-05-02T07:20:34;100864.03;;;18.65;52.76
12182;BME280;6154;51.550;12.138;2023-05-02T07:23:05;100869.25;;;18.66;52.72
12182;BME280;6154;51.550;12.138;2023-05-02T07:25:33;100873.28;;;18.38;54.24
12182;BME280;6154;51.550;12.138;2023-05-02T07:28:02;100882.53;;;18.46;53.79
12182;BME280;6154;51.550;12.138;2023-05-02T07:30:31;100885.97;;;18.25;55.63
12182;BME280;6154;51.550;12.138;2023-05-02T07:32:59;100892.53;;;18.10;56.59
12182;BME280;6154;51.550;12.138;2023-05-02T07:35:29;100895.72;;;18.04;55.46
12182;BME280;6154;51.550;12.138;2023-05-02T07:37:57;100891.09;;;18.17;54.79
12182;BME280;6154;51.550;12.138;2023-05-02T07:40:25;100887.69;;;18.15;55.29
12182;BME280;6154;51.550;12.138;2023-05-02T07:42:54;100887.78;;;18.02;56.69
12182;BME280;6154;51.550;12.138;2023-05-02T07:45:23;100896.78;;;17.90;57.78
12182;BME280;6154;51.550;12.138;2023-05-02T07:47:51;100905.31;;;18.06;55.73
12182;BME280;6154;51.550;12.138;2023-05-02T07:50:19;100907.28;;;18.16;55.31
12182;BME280;6154;51.550;12.138;2023-05-02T07:52:50;100905.81;;;18.23;55.44
12182;BME280;6154;51.550;12.138;2023-05-02T07:55:18;100910.56;;;18.19;56.25
12182;BME280;6154;51.550;12.138;2023-05-02T07:57:47;100913.84;;;18.23;55.46
12182;BME280;6154;51.550;12.138;2023-05-02T08:00:16;100908.59;;;18.21;56.47
12182;BME280;6154;51.550;12.138;2023-05-02T08:02:44;100922.38;;;18.39;56.11
12182;BME280;6154;51.550;12.138;2023-05-02T08:05:13;100920.06;;;18.57;56.25
12182;BME280;6154;51.550;12.138;2023-05-02T08:07:42;100917.84;;;18.62;56.84
12182;BME280;6154;51.550;12.138;2023-05-02T08:10:11;100917.59;;;18.87;56.40
12182;BME280;6154;51.550;12.138;2023-05-02T08:12:40;100914.47;;;19.14;55.82
12182;BME280;6154;51.550;12.138;2023-05-02T08:15:11;100918.28;;;19.33;56.42
12182;BME280;6154;51.550;12.138;2023-05-02T08:17:40;100918.13;;;19.45;56.54
12182;BME280;6154;51.550;12.138;2023-05-02T08:20:09;100926.59;;;19.62;55.38
12182;BME280;6154;51.550;12.138;2023-05-02T08:22:37;100926.16;;;19.57;55.84
12182;BME280;6154;51.550;12.138;2023-05-02T08:25:05;100931.47;;;19.89;55.30
12182;BME280;6154;51.550;12.138;2023-05-02T08:27:35;100938.41;;;20.22;54.96
12182;BME280;6154;51.550;12.138;2023-05-02T08:30:04;100937.88;;;20.49;54.40
12182;BME280;6154;51.550;12.138;2023-05-02T08:32:35;100942.78;;;20.84;54.41
12182;BME280;6154;51.550;12.138;2023-05-02T08:35:04;100940.75;;;21.16;54.00
12182;BME280;6154;51.550;12.138;2023-05-02T08:37:32;100931.38;;;21.11;53.87
12182;BME280;6154;51.550;12.138;2023-05-02T08:40:01;100935.63;;;21.23;54.21
12182;BME280;6154;51.550;12.138;2023-05-02T08:42:32;100930.88;;;21.46;53.57
12182;BME280;6154;51.550;12.138;2023-05-02T08:45:02;100938.34;;;21.52;53.93
12182;BME280;6154;51.550;12.138;2023-05-02T08:47:32;100947.25;;;21.23;53.89
12182;BME280;6154;51.550;12.138;2023-05-02T08:50:02;100948.53;;;21.19;53.49
12182;BME280;6154;51.550;12.138;2023-05-02T08:52:31;100955.31;;;21.23;53.58
12182;BME280;6154;51.550;12.138;2023-05-02T08:55:00;100955.28;;;20.85;53.31
12182;BME280;6154;51.550;12.138;2023-05-02T08:57:30;100957.59;;;21.18;53.44
12182;BME280;6154;51.550;12.138;2023-05-02T08:59:58;100962.94;;;20.99;53.49
12182;BME280;6154;51.550;12.138;2023-05-02T09:02:39;100962.50;;;20.84;53.70
12182;BME280;6154;51.550;12.138;2023-05-02T09:05:18;100972.44;;;21.03;53.64
12182;BME280;6154;51.550;12.138;2023-05-02T09:07:47;100973.53;;;21.70;53.87
12182;BME280;6154;51.550;12.138;2023-05-02T09:10:16;100978.47;;;21.74;52.49
12182;BME280;6154;51.550;12.138;2023-05-02T09:12:44;100975.75;;;21.94;52.30
12182;BME280;6154;51.550;12.138;2023-05-02T09:15:14;100987.44;;;21.85;52.00
12182;BME280;6154;51.550;12.138;2023-05-02T09:17:48;100985.84;;;22.11;51.92
12182;BME280;6154;51.550;12.138;2023-05-02T09:20:16;100988.12;;;22.53;51.45
12182;BME280;6154;51.550;12.138;2023-05-02T09:22:49;100986.81;;;22.66;51.23
12182;BME280;6154;51.550;12.138;2023-05-02T09:25:18;100990.88;;;23.08;50.39
12182;BME280;6154;51.550;12.138;2023-05-02T09:27:51;100993.25;;;23.56;50.67
12182;BME280;6154;51.550;12.138;2023-05-02T09:30:22;100986.72;;;24.02;49.48
12182;BME280;6154;51.550;12.138;2023-05-02T09:32:52;100989.37;;;24.38;49.47
12182;BME280;6154;51.550;12.138;2023-05-02T09:35:22;100995.47;;;24.74;49.46
12182;BME280;6154;51.550;12.138;2023-05-02T09:37:51;100995.34;;;24.84;49.09
12182;BME280;6154;51.550;12.138;2023-05-02T09:40:20;100996.66;;;24.72;48.84
12182;BME280;6154;51.550;12.138;2023-05-02T09:42:49;101003.81;;;24.29;48.52
12182;BME280;6154;51.550;12.138;2023-05-02T09:45:19;100996.87;;;23.65;47.70
12182;BME280;6154;51.550;12.138;2023-05-02T09:47:47;100999.91;;;23.62;48.77
12182;BME280;6154;51.550;12.138;2023-05-02T09:50:34;101001.22;;;23.75;49.08
12182;BME280;6154;51.550;12.138;2023-05-02T09:53:03;101001.28;;;23.48;47.30
12182;BME280;6154;51.550;12.138;2023-05-02T09:55:33;100996.63;;;23.40;48.85
12182;BME280;6154;51.550;12.138;2023-05-02T09:58:01;100994.19;;;23.65;49.04
12182;BME280;6154;51.550;12.138;2023-05-02T10:00:40;101004.59;;;23.95;48.61
12182;BME280;6154;51.550;12.138;2023-05-02T10:03:10;101014.75;;;24.19;47.28
12182;BME280;6154;51.550;12.138;2023-05-02T10:05:40;101007.25;;;24.13;47.03
12182;BME280;6154;51.550;12.138;2023-05-02T10:08:10;101013.69;;;24.12;47.21
12182;BME280;6154;51.550;12.138;2023-05-02T10:10:40;101015.59;;;24.20;47.79
12182;BME280;6154;51.550;12.138;2023-05-02T10:13:12;101018.06;;;24.31;47.32
12182;BME280;6154;51.550;12.138;2023-05-02T10:15:42;101021.09;;;24.10;47.55
12182;BME280;6154;51.550;12.138;2023-05-02T10:18:13;101017.56;;;24.09;47.59
12182;BME280;6154;51.550;12.138;2023-05-02T10:20:50;101017.47;;;24.19;47.83
12182;BME280;6154;51.550;12.138;2023-05-02T10:23:25;101019.31;;;24.36;46.78
12182;BME280;6154;51.550;12.138;2023-05-02T10:25:53;101021.62;;;24.57;46.82
12182;BME280;6154;51.550;12.138;2023-05-02T10:28:25;101019.19;;;24.46;46.81
12182;BME280;6154;51.550;12.138;2023-05-02T10:30:54;101016.69;;;24.09;46.69
12182;BME280;6154;51.550;12.138;2023-05-02T10:33:22;101021.38;;;24.25;46.95
12182;BME280;6154;51.550;12.138;2023-05-02T10:35:53;101028.69;;;24.06;46.84
12182;BME280;6154;51.550;12.138;2023-05-02T10:38:22;101036.59;;;23.19;47.67
12182;BME280;6154;51.550;12.138;2023-05-02T10:40:53;101039.75;;;22.87;47.43
12182;BME280;6154;51.550;12.138;2023-05-02T10:43:24;101044.72;;;22.25;47.95
12182;BME280;6154;51.550;12.138;2023-05-02T10:45:54;101048.50;;;21.36;49.53
12182;BME280;6154;51.550;12.138;2023-05-02T10:48:23;101064.22;;;21.31;49.98
12182;BME280;6154;51.550;12.138;2023-05-02T10:50:55;101064.72;;;20.75;52.33
12182;BME280;6154;51.550;12.138;2023-05-02T10:53:25;101060.37;;;20.21;53.84
12182;BME280;6154;51.550;12.138;2023-05-02T10:56:21;101067.56;;;19.99;54.09
12182;BME280;6154;51.550;12.138;2023-05-02T10:59:27;101069.31;;;19.89;57.47
12182;BME280;6154;51.550;12.138;2023-05-02T11:01:56;101077.34;;;19.68;58.41
12182;BME280;6154;51.550;12.138;2023-05-02T11:04:25;101078.25;;;19.90;54.38
12182;BME280;6154;51.550;12.138;2023-05-02T11:07:16;101076.94;;;19.73;56.98
12182;BME280;6154;51.550;12.138;2023-05-02T11:09:46;101079.84;;;19.81;59.42
12182;BME280;6154;51.550;12.138;2023-05-02T11:12:44;101082.72;;;20.00;55.26
12182;BME280;6154;51.550;12.138;2023-05-02T11:15:14;101085.41;;;20.00;57.97
12182;BME280;6154;51.550;12.138;2023-05-02T11:17:58;101085.47;;;20.10;56.06
12182;BME280;6154;51.550;12.138;2023-05-02T11:20:28;101085.13;;;20.35;57.50
12182;BME280;6154;51.550;12.138;2023-05-02T11:23:18;101083.81;;;20.51;54.81
12182;BME280;6154;51.550;12.138;2023-05-02T11:25:54;101089.62;;;20.35;57.01
12182;BME280;6154;51.550;12.138;2023-05-02T11:28:40;101094.56;;;19.98;55.53
12182;BME280;6154;51.550;12.138;2023-05-02T11:34:41;101093.72;;;19.54;56.86
12182;BME280;6154;51.550;12.138;2023-05-02T11:37:11;101096.56;;;20.17;55.88
12182;BME280;6154;51.550;12.138;2023-05-02T11:39:42;101094.59;;;20.39;54.64
12182;BME280;6154;51.550;12.138;2023-05-02T11:42:26;101095.00;;;20.77;53.56
12182;BME280;6154;51.550;12.138;2023-05-02T11:44:56;101101.28;;;21.17;55.01
12182;BME280;6154;51.550;12.138;2023-05-02T11:47:26;101102.75;;;21.31;52.86
12182;BME280;6154;51.550;12.138;2023-05-02T11:49:56;101105.06;;;21.36;52.64
12182;BME280;6154;51.550;12.138;2023-05-02T11:52:25;101111.69;;;21.32;52.54
12182;BME280;6154;51.550;12.138;2023-05-02T11:54:55;101105.47;;;21.31;52.48
12182;BME280;6154;51.550;12.138;2023-05-02T11:57:24;101114.75;;;21.17;52.93
12182;BME280;6154;51.550;12.138;2023-05-02T11:59:53;101121.13;;;20.86;51.99
12182;BME280;6154;51.550;12.138;2023-05-02T12:02:34;101120.19;;;21.27;52.37
12182;BME280;6154;51.550;12.138;2023-05-02T12:05:04;101114.44;;;21.51;52.75
12182;BME280;6154;51.550;12.138;2023-05-02T12:07:34;101126.81;;;21.73;51.99
12182;BME280;6154;51.550;12.138;2023-05-02T12:10:05;101123.28;;;21.82;51.57
12182;BME280;6154;51.550;12.138;2023-05-02T12:12:34;101114.50;;;21.90;51.14
12182;BME280;6154;51.550;12.138;2023-05-02T12:15:03;101119.75;;;21.81;51.04
12182;BME280;6154;51.550;12.138;2023-05-02T12:17:33;101116.78;;;22.04;51.19
12182;BME280;6154;51.550;12.138;2023-05-02T12:20:03;101127.16;;;21.99;50.59
12182;BME280;6154;51.550;12.138;2023-05-02T12:22:32;101126.00;;;22.01;50.56
12182;BME280;6154;51.550;12.138;2023-05-02T12:25:01;101131.34;;;21.72;50.80
12182;BME280;6154;51.550;12.138;2023-05-02T12:27:32;101123.59;;;21.89;50.43
12182;BME280;6154;51.550;12.138;2023-05-02T12:30:01;101129.25;;;21.76;50.76
12182;BME280;6154;51.550;12.138;2023-05-02T12:32:31;101141.44;;;21.70;50.56
12182;BME280;6154;51.550;12.138;2023-05-02T12:35:01;101139.28;;;21.55;50.18
12182;BME280;6154;51.550;12.138;2023-05-02T12:37:31;101148.91;;;21.47;49.77
12182;BME280;6154;51.550;12.138;2023-05-02T12:39:59;101151.06;;;21.73;50.05
12182;BME280;6154;51.550;12.138;2023-05-02T12:42:29;101157.97;;;22.06;50.40
12182;BME280;6154;51.550;12.138;2023-05-02T12:45:02;101154.00;;;22.20;49.85
12182;BME280;6154;51.550;12.138;2023-05-02T12:47:43;101166.06;;;22.45;49.63
12182;BME280;6154;51.550;12.138;2023-05-02T12:52:03;101166.03;;;22.74;48.64
12182;BME280;6154;51.550;12.138;2023-05-02T12:54:31;101166.03;;;22.74;48.64
12182;BME280;6154;51.550;12.138;2023-05-02T12:56:59;101180.53;;;22.24;48.85
12182;BME280;6154;51.550;12.138;2023-05-02T12:59:30;101191.06;;;22.18;48.54
12182;BME280;6154;51.550;12.138;2023-05-02T13:01:59;101192.53;;;21.91;47.58
12182;BME280;6154;51.550;12.138;2023-05-02T13:04:34;101194.19;;;22.32;48.71
12182;BME280;6154;51.550;12.138;2023-05-02T13:07:04;101192.06;;;22.65;47.67
12182;BME280;6154;51.550;12.138;2023-05-02T13:09:32;101193.31;;;22.80;47.07
12182;BME280;6154;51.550;12.138;2023-05-02T13:12:00;101196.88;;;22.90;46.93
12182;BME280;6154;51.550;12.138;2023-05-02T13:14:30;101199.16;;;22.66;47.13